sensor_id;sensor_type;location;lat;lon;timestamp;P1;durP1;ratioP1;P2;durP2;ratioP2
12350;SDS011;6240;51.538;7.696;2023-02-10T00:01:13;46.77;;;28.10;;
12350;SDS011;6240;51.538;7.696;2023-02-10T00:03:41;46.40;;;26.67;;
12350;SDS011;6240;51.538;7.696;2023-02-10T00:06:08;43.10;;;26.43;;
12350;SDS011;6240;51.538;7.696;2023-02-10T00:08:38;48.23;;;27.07;;
12350;SDS011;6240;51.538;7.696;2023-02-10T00:11:06;46.93;;;27.13;;
12350;SDS011;6240;51.538;7.696;2023-02-10T00:13:35;49.57;;;27.80;;
12350;SDS011;6240;51.538;7.696;2023-02-10T00:16:03;46.20;;;26.33;;
12350;SDS011;6240;51.538;7.696;2023-02-10T00:18:31;45.70;;;27.30;;
12350;SDS011;6240;51.538;7.696;2023-02-10T00:21:04;42.97;;;26.03;;
12350;SDS011;6240;51.538;7.696;2023-02-10T00:23:31;42.37;;;26.53;;
12350;SDS011;6240;51.538;7.696;2023-02-10T00:26:02;46.00;;;27.47;;
12350;SDS011;6240;51.538;7.696;2023-02-10T00:28:30;43.73;;;27.83;;
12350;SDS011;6240;51.538;7.696;2023-02-10T00:30:57;41.27;;;25.53;;
12350;SDS011;6240;51.538;7.696;2023-02-10T00:33:24;46.10;;;25.87;;
12350;SDS011;6240;51.538;7.696;2023-02-10T00:35:51;42.10;;;26.67;;
12350;SDS011;6240;51.538;7.696;2023-02-10T00:38:19;40.73;;;25.43;;
12350;SDS011;6240;51.538;7.696;2023-02-10T00:40:46;45.97;;;27.80;;
12350;SDS011;6240;51.538;7.696;2023-02-10T00:43:15;42.60;;;26.20;;
12350;SDS011;6240;51.538;7.696;2023-02-10T00:45:42;50.33;;;27.23;;
12350;SDS011;6240;51.538;7.696;2023-02-10T00:48:09;40.63;;;27.30;;
12350;SDS011;6240;51.538;7.696;2023-02-10T00:50:36;42.17;;;26.23;;
12350;SDS011;6240;51.538;7.696;2023-02-10T00:53:03;38.67;;;25.20;;
12350;SDS011;6240;51.538;7.696;2023-02-10T00:55:31;45.17;;;26.70;;
12350;SDS011;6240;51.538;7.696;2023-02-10T00:57:58;41.60;;;26.37;;
12350;SDS011;6240;51.538;7.696;2023-02-10T01:00:26;42.90;;;26.57;;
12350;SDS011;6240;51.538;7.696;2023-02-10T01:02:53;40.00;;;25.73;;
12350;SDS011;6240;51.538;7.696;2023-02-10T01:05:21;38.67;;;24.67;;
12350;SDS011;6240;51.538;7.696;2023-02-10T01:07:48;41.77;;;26.07;;
12350;SDS011;6240;51.538;7.696;2023-02-10T01:10:17;42.10;;;25.30;;
12350;SDS011;6240;51.538;7.696;2023-02-10T01:12:44;40.03;;;25.47;;
12350;SDS011;6240;51.538;7.696;2023-02-10T01:15:12;44.50;;;25.90;;
12350;SDS011;6240;51.538;7.696;2023-02-10T01:17:40;43.07;;;26.00;;
12350;SDS011;6240;51.538;7.696;2023-02-10T01:20:07;40.17;;;25.03;;
12350;SDS011;6240;51.538;7.696;2023-02-10T01:22:35;40.53;;;26.90;;
12350;SDS011;6240;51.538;7.696;2023-02-10T01:25:03;41.20;;;26.63;;
12350;SDS011;6240;51.538;7.696;2023-02-10T01:27:30;44.97;;;26.93;;
12350;SDS011;6240;51.538;7.696;2023-02-10T01:29:57;43.13;;;27.10;;
12350;SDS011;6240;51.538;7.696;2023-02-10T01:32:24;42.83;;;26.87;;
12350;SDS011;6240;51.538;7.696;2023-02-10T01:34:53;41.83;;;26.80;;
12350;SDS011;6240;51.538;7.696;2023-02-10T01:37:20;41.40;;;27.07;;
12350;SDS011;6240;51.538;7.696;2023-02-10T01:39:47;45.20;;;26.20;;
12350;SDS011;6240;51.538;7.696;2023-02-10T01:42:16;41.90;;;26.50;;
12350;SDS011;6240;51.538;7.696;2023-02-10T01:47:38;39.90;;;25.40;;
12350;SDS011;6240;51.538;7.696;2023-02-10T01:50:07;38.30;;;25.93;;
12350;SDS011;6240;51.538;7.696;2023-02-10T01:52:34;46.83;;;25.83;;
12350;SDS011;6240;51.538;7.696;2023-02-10T01:55:01;44.37;;;26.90;;
12350;SDS011;6240;51.538;7.696;2023-02-10T01:57:29;38.70;;;25.33;;
12350;SDS011;6240;51.538;7.696;2023-02-10T01:59:57;42.07;;;25.73;;
12350;SDS011;6240;51.538;7.696;2023-02-10T02:02:24;38.77;;;25.50;;
12350;SDS011;6240;51.538;7.696;2023-02-10T02:04:53;39.30;;;25.87;;
12350;SDS011;6240;51.538;7.696;2023-02-10T02:07:23;44.47;;;25.90;;
12350;SDS011;6240;51.538;7.696;2023-02-10T02:09:51;38.90;;;25.93;;
12350;SDS011;6240;51.538;7.696;2023-02-10T02:12:22;43.43;;;26.97;;
12350;SDS011;6240;51.538;7.696;2023-02-10T02:14:52;46.13;;;27.47;;
12350;SDS011;6240;51.538;7.696;2023-02-10T02:17:21;44.63;;;27.93;;
12350;SDS011;6240;51.538;7.696;2023-02-10T02:23:04;39.57;;;27.13;;
12350;SDS011;6240;51.538;7.696;2023-02-10T02:25:41;44.83;;;27.30;;
12350;SDS011;6240;51.538;7.696;2023-02-10T02:36:29;46.57;;;28.13;;
12350;SDS011;6240;51.538;7.696;2023-02-10T02:38:58;44.97;;;28.50;;
12350;SDS011;6240;51.538;7.696;2023-02-10T02:41:26;48.67;;;29.50;;
12350;SDS011;6240;51.538;7.696;2023-02-10T02:43:54;49.43;;;27.17;;
12350;SDS011;6240;51.538;7.696;2023-02-10T02:46:22;44.47;;;29.27;;
12350;SDS011;6240;51.538;7.696;2023-02-10T02:48:56;46.77;;;28.90;;
12350;SDS011;6240;51.538;7.696;2023-02-10T02:51:27;45.37;;;30.03;;
12350;SDS011;6240;51.538;7.696;2023-02-10T02:53:59;43.93;;;29.53;;
12350;SDS011;6240;51.538;7.696;2023-02-10T02:56:30;44.03;;;28.90;;
12350;SDS011;6240;51.538;7.696;2023-02-10T02:58:59;48.40;;;30.10;;
12350;SDS011;6240;51.538;7.696;2023-02-10T03:01:31;46.43;;;29.10;;
12350;SDS011;6240;51.538;7.696;2023-02-10T03:03:58;48.83;;;29.23;;
12350;SDS011;6240;51.538;7.696;2023-02-10T03:06:26;48.10;;;30.23;;
12350;SDS011;6240;51.538;7.696;2023-02-10T03:08:53;45.23;;;27.63;;
12350;SDS011;6240;51.538;7.696;2023-02-10T03:11:22;49.10;;;30.00;;
12350;SDS011;6240;51.538;7.696;2023-02-10T03:13:49;48.13;;;28.60;;
12350;SDS011;6240;51.538;7.696;2023-02-10T03:16:16;53.03;;;30.10;;
12350;SDS011;6240;51.538;7.696;2023-02-10T03:18:44;48.07;;;29.03;;
12350;SDS011;6240;51.538;7.696;2023-02-10T03:21:11;50.50;;;30.47;;
12350;SDS011;6240;51.538;7.696;2023-02-10T03:23:38;49.17;;;30.43;;
12350;SDS011;6240;51.538;7.696;2023-02-10T03:26:06;53.80;;;31.23;;
12350;SDS011;6240;51.538;7.696;2023-02-10T03:28:34;52.47;;;30.40;;
12350;SDS011;6240;51.538;7.696;2023-02-10T03:31:02;48.37;;;31.07;;
12350;SDS011;6240;51.538;7.696;2023-02-10T03:33:29;52.93;;;32.03;;
12350;SDS011;6240;51.538;7.696;2023-02-10T03:35:57;50.57;;;30.43;;
12350;SDS011;6240;51.538;7.696;2023-02-10T03:38:24;55.97;;;31.60;;
12350;SDS011;6240;51.538;7.696;2023-02-10T03:40:51;49.40;;;31.17;;
12350;SDS011;6240;51.538;7.696;2023-02-10T03:43:19;45.20;;;30.37;;
12350;SDS011;6240;51.538;7.696;2023-02-10T03:45:48;52.93;;;30.53;;
12350;SDS011;6240;51.538;7.696;2023-02-10T03:48:15;49.07;;;28.63;;
12350;SDS011;6240;51.538;7.696;2023-02-10T03:50:42;48.27;;;29.77;;
12350;SDS011;6240;51.538;7.696;2023-02-10T03:53:09;51.90;;;30.07;;
12350;SDS011;6240;51.538;7.696;2023-02-10T03:55:37;46.90;;;30.27;;
12350;SDS011;6240;51.538;7.696;2023-02-10T03:58:04;49.63;;;29.37;;
12350;SDS011;6240;51.538;7.696;2023-02-10T04:00:31;49.33;;;30.17;;
12350;SDS011;6240;51.538;7.696;2023-02-10T04:03:00;49.97;;;30.07;;
12350;SDS011;6240;51.538;7.696;2023-02-10T04:05:27;48.13;;;30.83;;
12350;SDS011;6240;51.538;7.696;2023-02-10T04:07:54;53.03;;;30.57;;
12350;SDS011;6240;51.538;7.696;2023-02-10T04:10:22;50.60;;;32.07;;
12350;SDS011;6240;51.538;7.696;2023-02-10T04:12:49;60.63;;;33.67;;
12350;SDS011;6240;51.538;7.696;2023-02-10T04:15:16;56.50;;;32.77;;
12350;SDS011;6240;51.538;7.696;2023-02-10T04:17:43;54.00;;;33.17;;
12350;SDS011;6240;51.538;7.696;2023-02-10T04:20:12;58.37;;;34.00;;
12350;SDS011;6240;51.538;7.696;2023-02-10T04:22:39;53.57;;;33.90;;
12350;SDS011;6240;51.538;7.696;2023-02-10T04:25:07;52.67;;;32.13;;
12350;SDS011;6240;51.538;7.696;2023-02-10T04:27:34;54.47;;;33.50;;
12350;SDS011;6240;51.538;7.696;2023-02-10T04:30:01;55.97;;;34.53;;
12350;SDS011;6240;51.538;7.696;2023-02-10T04:32:28;57.37;;;33.03;;
12350;SDS011;6240;51.538;7.696;2023-02-10T04:34:56;55.43;;;33.57;;
12350;SDS011;6240;51.538;7.696;2023-02-10T04:37:24;55.93;;;34.93;;
12350;SDS011;6240;51.538;7.696;2023-02-10T04:39:51;57.37;;;33.80;;
12350;SDS011;6240;51.538;7.696;2023-02-10T04:42:19;57.37;;;32.80;;
12350;SDS011;6240;51.538;7.696;2023-02-10T04:44:54;62.17;;;36.80;;
12350;SDS011;6240;51.538;7.696;2023-02-10T04:47:21;55.97;;;34.80;;
12350;SDS011;6240;51.538;7.696;2023-02-10T04:49:49;58.30;;;34.97;;
12350;SDS011;6240;51.538;7.696;2023-02-10T04:52:16;59.90;;;36.17;;
12350;SDS011;6240;51.538;7.696;2023-02-10T04:54:44;59.87;;;36.43;;
12350;SDS011;6240;51.538;7.696;2023-02-10T04:57:11;58.73;;;35.33;;
12350;SDS011;6240;51.538;7.696;2023-02-10T04:59:39;56.20;;;34.30;;
12350;SDS011;6240;51.538;7.696;2023-02-10T05:02:06;63.67;;;36.37;;
12350;SDS011;6240;51.538;7.696;2023-02-10T05:04:33;61.93;;;34.27;;
12350;SDS011;6240;51.538;7.696;2023-02-10T05:07:00;58.80;;;35.43;;
12350;SDS011;6240;51.538;7.696;2023-02-10T05:09:30;58.50;;;34.13;;
12350;SDS011;6240;51.538;7.696;2023-02-10T05:11:59;65.23;;;34.10;;
12350;SDS011;6240;51.538;7.696;2023-02-10T05:14:26;60.97;;;34.87;;
12350;SDS011;6240;51.538;7.696;2023-02-10T05:16:53;57.43;;;35.93;;
12350;SDS011;6240;51.538;7.696;2023-02-10T05:19:20;57.67;;;35.17;;
12350;SDS011;6240;51.538;7.696;2023-02-10T05:21:47;57.17;;;35.77;;
12350;SDS011;6240;51.538;7.696;2023-02-10T05:24:15;60.90;;;36.73;;
12350;SDS011;6240;51.538;7.696;2023-02-10T05:26:43;60.23;;;37.10;;
12350;SDS011;6240;51.538;7.696;2023-02-10T05:29:15;60.67;;;36.17;;
12350;SDS011;6240;51.538;7.696;2023-02-10T05:31:43;63.90;;;34.60;;
12350;SDS011;6240;51.538;7.696;2023-02-10T05:34:10;56.60;;;36.50;;
12350;SDS011;6240;51.538;7.696;2023-02-10T05:36:37;57.93;;;34.87;;
12350;SDS011;6240;51.538;7.696;2023-02-10T05:39:04;63.93;;;36.47;;
12350;SDS011;6240;51.538;7.696;2023-02-10T05:41:51;62.80;;;37.57;;
12350;SDS011;6240;51.538;7.696;2023-02-10T05:44:20;60.97;;;36.40;;
12350;SDS011;6240;51.538;7.696;2023-02-10T05:46:47;62.40;;;35.60;;
12350;SDS011;6240;51.538;7.696;2023-02-10T05:49:14;59.30;;;35.43;;
12350;SDS011;6240;51.538;7.696;2023-02-10T05:51:41;61.40;;;37.13;;
12350;SDS011;6240;51.538;7.696;2023-02-10T05:54:09;68.83;;;38.30;;
12350;SDS011;6240;51.538;7.696;2023-02-10T05:56:36;66.40;;;38.30;;
12350;SDS011;6240;51.538;7.696;2023-02-10T05:59:04;62.87;;;37.40;;
12350;SDS011;6240;51.538;7.696;2023-02-10T06:01:33;68.17;;;38.87;;
12350;SDS011;6240;51.538;7.696;2023-02-10T06:04:03;69.67;;;38.60;;
12350;SDS011;6240;51.538;7.696;2023-02-10T06:06:30;70.60;;;39.17;;
12350;SDS011;6240;51.538;7.696;2023-02-10T06:08:59;62.23;;;37.80;;
12350;SDS011;6240;51.538;7.696;2023-02-10T06:11:29;64.53;;;37.67;;
12350;SDS011;6240;51.538;7.696;2023-02-10T06:13:59;62.93;;;37.90;;
12350;SDS011;6240;51.538;7.696;2023-02-10T06:16:26;66.67;;;37.57;;
12350;SDS011;6240;51.538;7.696;2023-02-10T06:18:55;66.73;;;37.77;;
12350;SDS011;6240;51.538;7.696;2023-02-10T06:21:23;58.80;;;36.17;;
12350;SDS011;6240;51.538;7.696;2023-02-10T06:23:52;65.37;;;37.50;;
12350;SDS011;6240;51.538;7.696;2023-02-10T06:26:20;60.17;;;36.73;;
12350;SDS011;6240;51.538;7.696;2023-02-10T06:28:47;59.43;;;34.80;;
12350;SDS011;6240;51.538;7.696;2023-02-10T06:31:14;65.07;;;35.83;;
12350;SDS011;6240;51.538;7.696;2023-02-10T06:33:42;62.70;;;36.70;;
12350;SDS011;6240;51.538;7.696;2023-02-10T06:36:10;61.43;;;35.20;;
12350;SDS011;6240;51.538;7.696;2023-02-10T06:38:37;60.73;;;35.97;;
12350;SDS011;6240;51.538;7.696;2023-02-10T06:41:06;57.40;;;34.87;;
12350;SDS011;6240;51.538;7.696;2023-02-10T06:43:39;59.47;;;34.57;;
12350;SDS011;6240;51.538;7.696;2023-02-10T06:46:08;63.30;;;36.67;;
12350;SDS011;6240;51.538;7.696;2023-02-10T06:48:37;59.30;;;35.20;;
12350;SDS011;6240;51.538;7.696;2023-02-10T06:51:04;61.40;;;36.10;;
12350;SDS011;6240;51.538;7.696;2023-02-10T06:53:33;65.83;;;39.10;;
12350;SDS011;6240;51.538;7.696;2023-02-10T06:56:01;62.23;;;37.57;;
12350;SDS011;6240;51.538;7.696;2023-02-10T06:58:28;76.23;;;43.43;;
12350;SDS011;6240;51.538;7.696;2023-02-10T07:00:55;65.97;;;40.43;;
12350;SDS011;6240;51.538;7.696;2023-02-10T07:03:23;70.17;;;40.13;;
12350;SDS011;6240;51.538;7.696;2023-02-10T07:05:52;69.83;;;39.80;;
12350;SDS011;6240;51.538;7.696;2023-02-10T07:08:20;60.60;;;36.40;;
12350;SDS011;6240;51.538;7.696;2023-02-10T07:10:50;62.17;;;36.57;;
12350;SDS011;6240;51.538;7.696;2023-02-10T07:13:21;61.73;;;35.67;;
12350;SDS011;6240;51.538;7.696;2023-02-10T07:15:51;62.53;;;37.60;;
12350;SDS011;6240;51.538;7.696;2023-02-10T07:18:21;63.53;;;38.50;;
12350;SDS011;6240;51.538;7.696;2023-02-10T07:20:48;68.37;;;37.20;;
12350;SDS011;6240;51.538;7.696;2023-02-10T07:23:16;65.60;;;35.90;;
12350;SDS011;6240;51.538;7.696;2023-02-10T07:25:43;60.00;;;36.13;;
12350;SDS011;6240;51.538;7.696;2023-02-10T07:28:11;64.33;;;35.57;;
12350;SDS011;6240;51.538;7.696;2023-02-10T07:30:39;62.87;;;36.33;;
12350;SDS011;6240;51.538;7.696;2023-02-10T07:33:06;68.47;;;36.60;;
12350;SDS011;6240;51.538;7.696;2023-02-10T07:35:33;61.33;;;36.50;;
12350;SDS011;6240;51.538;7.696;2023-02-10T07:38:00;68.50;;;37.10;;
12350;SDS011;6240;51.538;7.696;2023-02-10T07:40:27;63.10;;;36.10;;
12350;SDS011;6240;51.538;7.696;2023-02-10T07:42:55;57.67;;;33.83;;
12350;SDS011;6240;51.538;7.696;2023-02-10T07:45:24;73.53;;;38.03;;
12350;SDS011;6240;51.538;7.696;2023-02-10T07:47:55;61.87;;;36.03;;
12350;SDS011;6240;51.538;7.696;2023-02-10T07:50:22;67.10;;;36.93;;
12350;SDS011;6240;51.538;7.696;2023-02-10T07:52:50;64.37;;;35.50;;
12350;SDS011;6240;51.538;7.696;2023-02-10T07:55:17;63.83;;;37.70;;
12350;SDS011;6240;51.538;7.696;2023-02-10T07:57:45;69.53;;;39.30;;
12350;SDS011;6240;51.538;7.696;2023-02-10T08:00:12;66.83;;;35.80;;
12350;SDS011;6240;51.538;7.696;2023-02-10T08:02:41;66.60;;;36.43;;
12350;SDS011;6240;51.538;7.696;2023-02-10T08:05:08;66.23;;;36.63;;
12350;SDS011;6240;51.538;7.696;2023-02-10T08:07:42;64.57;;;38.23;;
12350;SDS011;6240;51.538;7.696;2023-02-10T08:10:10;65.00;;;35.30;;
12350;SDS011;6240;51.538;7.696;2023-02-10T08:12:39;64.70;;;36.37;;
12350;SDS011;6240;51.538;7.696;2023-02-10T08:15:08;65.40;;;37.27;;
12350;SDS011;6240;51.538;7.696;2023-02-10T08:17:35;62.10;;;36.53;;
12350;SDS011;6240;51.538;7.696;2023-02-10T08:20:05;61.20;;;34.83;;
12350;SDS011;6240;51.538;7.696;2023-02-10T08:22:32;64.47;;;36.20;;
12350;SDS011;6240;51.538;7.696;2023-02-10T08:25:00;62.97;;;34.90;;
12350;SDS011;6240;51.538;7.696;2023-02-10T08:27:27;63.17;;;36.50;;
12350;SDS011;6240;51.538;7.696;2023-02-10T08:29:54;61.33;;;36.03;;
12350;SDS011;6240;51.538;7.696;2023-02-10T08:32:21;59.83;;;36.27;;
12350;SDS011;6240;51.538;7.696;2023-02-10T08:34:49;64.07;;;34.63;;
12350;SDS011;6240;51.538;7.696;2023-02-10T08:37:19;58.67;;;33.70;;
12350;SDS011;6240;51.538;7.696;2023-02-10T08:39:46;60.90;;;35.10;;
12350;SDS011;6240;51.538;7.696;2023-02-10T08:42:13;63.83;;;34.97;;
12350;SDS011;6240;51.538;7.696;2023-02-10T08:44:41;59.40;;;36.27;;
12350;SDS011;6240;51.538;7.696;2023-02-10T08:47:08;57.97;;;34.23;;
12350;SDS011;6240;51.538;7.696;2023-02-10T08:49:38;57.87;;;32.23;;
12350;SDS011;6240;51.538;7.696;2023-02-10T08:52:06;55.77;;;33.37;;
12350;SDS011;6240;51.538;7.696;2023-02-10T08:54:35;57.80;;;33.83;;
12350;SDS011;6240;51.538;7.696;2023-02-10T08:57:02;58.40;;;32.50;;
12350;SDS011;6240;51.538;7.696;2023-02-10T08:59:30;52.87;;;32.90;;
12350;SDS011;6240;51.538;7.696;2023-02-10T09:01:57;60.70;;;34.47;;
12350;SDS011;6240;51.538;7.696;2023-02-10T09:04:25;60.00;;;32.57;;
12350;SDS011;6240;51.538;7.696;2023-02-10T09:06:52;57.23;;;33.50;;
12350;SDS011;6240;51.538;7.696;2023-02-10T09:09:22;55.23;;;32.83;;
12350;SDS011;6240;51.538;7.696;2023-02-10T09:11:55;54.60;;;33.30;;
12350;SDS011;6240;51.538;7.696;2023-02-10T09:14:24;58.20;;;32.10;;
12350;SDS011;6240;51.538;7.696;2023-02-10T09:16:51;58.27;;;31.93;;
12350;SDS011;6240;51.538;7.696;2023-02-10T09:19:19;52.47;;;32.53;;
12350;SDS011;6240;51.538;7.696;2023-02-10T09:21:50;54.00;;;32.97;;
12350;SDS011;6240;51.538;7.696;2023-02-10T09:24:21;55.63;;;33.33;;
12350;SDS011;6240;51.538;7.696;2023-02-10T09:26:48;52.57;;;30.77;;
12350;SDS011;6240;51.538;7.696;2023-02-10T09:29:18;53.10;;;32.17;;
12350;SDS011;6240;51.538;7.696;2023-02-10T09:31:45;50.93;;;31.10;;
12350;SDS011;6240;51.538;7.696;2023-02-10T09:34:13;52.20;;;31.67;;
12350;SDS011;6240;51.538;7.696;2023-02-10T09:36:40;55.07;;;31.80;;
12350;SDS011;6240;51.538;7.696;2023-02-10T09:39:09;49.73;;;29.60;;
12350;SDS011;6240;51.538;7.696;2023-02-10T09:41:51;50.00;;;30.60;;
12350;SDS011;6240;51.538;7.696;2023-02-10T09:44:28;54.47;;;31.77;;
12350;SDS011;6240;51.538;7.696;2023-02-10T09:52:32;46.97;;;28.83;;
12350;SDS011;6240;51.538;7.696;2023-02-10T09:55:03;47.17;;;28.53;;
12350;SDS011;6240;51.538;7.696;2023-02-10T09:57:35;45.37;;;29.53;;
12350;SDS011;6240;51.538;7.696;2023-02-10T10:00:09;47.67;;;28.50;;
12350;SDS011;6240;51.538;7.696;2023-02-10T10:02:42;50.00;;;28.70;;
12350;SDS011;6240;51.538;7.696;2023-02-10T10:05:13;44.40;;;28.93;;
12350;SDS011;6240;51.538;7.696;2023-02-10T10:07:43;42.83;;;27.27;;
12350;SDS011;6240;51.538;7.696;2023-02-10T10:10:14;47.63;;;27.37;;
12350;SDS011;6240;51.538;7.696;2023-02-10T10:12:44;47.17;;;26.90;;
12350;SDS011;6240;51.538;7.696;2023-02-10T10:15:15;43.00;;;25.53;;
12350;SDS011;6240;51.538;7.696;2023-02-10T10:17:46;38.73;;;23.33;;
12350;SDS011;6240;51.538;7.696;2023-02-10T10:20:21;37.50;;;23.23;;
12350;SDS011;6240;51.538;7.696;2023-02-10T10:22:55;39.27;;;23.57;;
12350;SDS011;6240;51.538;7.696;2023-02-10T10:25:36;39.57;;;24.60;;
12350;SDS011;6240;51.538;7.696;2023-02-10T10:28:08;35.87;;;22.90;;
12350;SDS011;6240;51.538;7.696;2023-02-10T10:30:43;34.87;;;22.67;;
12350;SDS011;6240;51.538;7.696;2023-02-10T10:33:14;36.73;;;24.03;;
12350;SDS011;6240;51.538;7.696;2023-02-10T10:35:47;37.57;;;24.83;;
12350;SDS011;6240;51.538;7.696;2023-02-10T10:38:15;39.67;;;24.60;;
12350;SDS011;6240;51.538;7.696;2023-02-10T10:40:45;38.30;;;23.50;;
12350;SDS011;6240;51.538;7.696;2023-02-10T10:43:14;39.20;;;24.90;;
12350;SDS011;6240;51.538;7.696;2023-02-10T10:45:46;37.70;;;22.67;;
12350;SDS011;6240;51.538;7.696;2023-02-10T10:48:15;37.23;;;22.97;;
12350;SDS011;6240;51.538;7.696;2023-02-10T10:50:43;34.27;;;21.37;;
12350;SDS011;6240;51.538;7.696;2023-02-10T10:53:12;34.93;;;21.90;;
12350;SDS011;6240;51.538;7.696;2023-02-10T10:55:41;35.03;;;21.23;;
12350;SDS011;6240;51.538;7.696;2023-02-10T10:58:20;34.83;;;21.83;;
12350;SDS011;6240;51.538;7.696;2023-02-10T11:00:51;33.23;;;21.20;;
12350;SDS011;6240;51.538;7.696;2023-02-10T11:03:18;34.17;;;22.47;;
12350;SDS011;6240;51.538;7.696;2023-02-10T11:05:56;35.83;;;22.20;;
12350;SDS011;6240;51.538;7.696;2023-02-10T11:08:25;31.00;;;20.53;;
12350;SDS011;6240;51.538;7.696;2023-02-10T11:10:53;32.57;;;20.93;;
12350;SDS011;6240;51.538;7.696;2023-02-10T11:13:23;32.30;;;20.33;;
12350;SDS011;6240;51.538;7.696;2023-02-10T11:15:59;29.80;;;18.00;;
12350;SDS011;6240;51.538;7.696;2023-02-10T11:18:27;28.87;;;18.77;;
12350;SDS011;6240;51.538;7.696;2023-02-10T11:20:55;32.00;;;19.40;;
12350;SDS011;6240;51.538;7.696;2023-02-10T11:23:23;27.83;;;18.13;;
12350;SDS011;6240;51.538;7.696;2023-02-10T11:25:56;30.67;;;19.13;;
12350;SDS011;6240;51.538;7.696;2023-02-10T11:28:30;28.03;;;18.67;;
12350;SDS011;6240;51.538;7.696;2023-02-10T11:31:04;30.03;;;18.20;;
12350;SDS011;6240;51.538;7.696;2023-02-10T11:33:34;28.30;;;18.70;;
12350;SDS011;6240;51.538;7.696;2023-02-10T11:36:03;30.47;;;19.93;;
12350;SDS011;6240;51.538;7.696;2023-02-10T11:38:31;32.50;;;20.13;;
12350;SDS011;6240;51.538;7.696;2023-02-10T11:40:59;30.13;;;20.00;;
12350;SDS011;6240;51.538;7.696;2023-02-10T11:43:30;30.13;;;19.20;;
12350;SDS011;6240;51.538;7.696;2023-02-10T11:45:58;29.40;;;19.03;;
12350;SDS011;6240;51.538;7.696;2023-02-10T11:48:27;29.60;;;19.00;;
12350;SDS011;6240;51.538;7.696;2023-02-10T11:51:05;28.23;;;18.27;;
12350;SDS011;6240;51.538;7.696;2023-02-10T11:53:33;29.33;;;20.10;;
12350;SDS011;6240;51.538;7.696;2023-02-10T11:56:01;27.33;;;18.40;;
12350;SDS011;6240;51.538;7.696;2023-02-10T12:01:41;28.83;;;17.50;;
12350;SDS011;6240;51.538;7.696;2023-02-10T12:04:18;26.33;;;16.23;;
12350;SDS011;6240;51.538;7.696;2023-02-10T12:06:50;26.03;;;17.00;;
12350;SDS011;6240;51.538;7.696;2023-02-10T12:09:21;22.53;;;15.73;;
12350;SDS011;6240;51.538;7.696;2023-02-10T12:11:53;27.63;;;17.53;;
12350;SDS011;6240;51.538;7.696;2023-02-10T12:14:27;25.80;;;16.87;;
12350;SDS011;6240;51.538;7.696;2023-02-10T12:16:57;23.80;;;16.73;;
12350;SDS011;6240;51.538;7.696;2023-02-10T12:19:29;30.17;;;17.73;;
12350;SDS011;6240;51.538;7.696;2023-02-10T12:22:02;30.30;;;17.27;;
12350;SDS011;6240;51.538;7.696;2023-02-10T12:24:51;25.77;;;16.77;;
12350;SDS011;6240;51.538;7.696;2023-02-10T12:27:22;27.40;;;16.70;;
12350;SDS011;6240;51.538;7.696;2023-02-10T12:29:53;24.37;;;17.87;;
12350;SDS011;6240;51.538;7.696;2023-02-10T12:32:27;26.07;;;18.00;;
12350;SDS011;6240;51.538;7.696;2023-02-10T12:35:08;26.50;;;19.27;;
12350;SDS011;6240;51.538;7.696;2023-02-10T12:37:41;24.10;;;17.63;;
12350;SDS011;6240;51.538;7.696;2023-02-10T12:40:24;27.67;;;18.70;;
12350;SDS011;6240;51.538;7.696;2023-02-10T12:42:56;28.97;;;18.43;;
12350;SDS011;6240;51.538;7.696;2023-02-10T12:45:28;32.50;;;19.23;;
12350;SDS011;6240;51.538;7.696;2023-02-10T12:48:02;29.80;;;19.07;;
12350;SDS011;6240;51.538;7.696;2023-02-10T12:50:43;29.87;;;20.27;;
12350;SDS011;6240;51.538;7.696;2023-02-10T12:53:15;29.40;;;18.77;;
12350;SDS011;6240;51.538;7.696;2023-02-10T12:55:50;28.67;;;19.63;;
12350;SDS011;6240;51.538;7.696;2023-02-10T12:58:25;30.43;;;19.43;;
12350;SDS011;6240;51.538;7.696;2023-02-10T13:00:58;30.83;;;18.70;;
12350;SDS011;6240;51.538;7.696;2023-02-10T13:03:30;27.70;;;18.77;;
12350;SDS011;6240;51.538;7.696;2023-02-10T13:06:02;31.80;;;19.30;;
12350;SDS011;6240;51.538;7.696;2023-02-10T13:08:33;29.70;;;19.13;;
12350;SDS011;6240;51.538;7.696;2023-02-10T13:11:07;29.00;;;18.83;;
12350;SDS011;6240;51.538;7.696;2023-02-10T13:13:39;29.73;;;19.53;;
12350;SDS011;6240;51.538;7.696;2023-02-10T13:16:10;30.27;;;18.50;;
12350;SDS011;6240;51.538;7.696;2023-02-10T13:18:42;31.90;;;19.37;;
12350;SDS011;6240;51.538;7.696;2023-02-10T13:21:13;31.30;;;17.97;;
12350;SDS011;6240;51.538;7.696;2023-02-10T13:23:44;31.53;;;19.27;;
12350;SDS011;6240;51.538;7.696;2023-02-10T13:26:28;28.70;;;17.43;;
12350;SDS011;6240;51.538;7.696;2023-02-10T13:28:59;32.37;;;18.10;;
12350;SDS011;6240;51.538;7.696;2023-02-10T13:31:35;28.97;;;17.37;;
12350;SDS011;6240;51.538;7.696;2023-02-10T13:34:13;30.67;;;17.13;;
12350;SDS011;6240;51.538;7.696;2023-02-10T13:36:52;31.90;;;16.97;;
12350;SDS011;6240;51.538;7.696;2023-02-10T13:39:26;27.33;;;17.00;;
12350;SDS011;6240;51.538;7.696;2023-02-10T13:42:05;27.70;;;18.10;;
12350;SDS011;6240;51.538;7.696;2023-02-10T13:44:36;26.17;;;17.20;;
12350;SDS011;6240;51.538;7.696;2023-02-10T13:47:12;28.23;;;17.17;;
12350;SDS011;6240;51.538;7.696;2023-02-10T13:49:47;28.80;;;16.63;;
12350;SDS011;6240;51.538;7.696;2023-02-10T13:52:18;29.90;;;17.67;;
12350;SDS011;6240;51.538;7.696;2023-02-10T13:54:56;32.07;;;17.30;;
12350;SDS011;6240;51.538;7.696;2023-02-10T13:57:25;26.37;;;17.00;;
12350;SDS011;6240;51.538;7.696;2023-02-10T14:00:04;24.73;;;16.43;;
12350;SDS011;6240;51.538;7.696;2023-02-10T14:02:33;25.47;;;16.53;;
12350;SDS011;6240;51.538;7.696;2023-02-10T14:05:02;29.53;;;18.13;;
12350;SDS011;6240;51.538;7.696;2023-02-10T14:07:39;26.00;;;16.70;;
12350;SDS011;6240;51.538;7.696;2023-02-10T14:10:26;28.50;;;17.03;;
12350;SDS011;6240;51.538;7.696;2023-02-10T14:12:54;27.27;;;16.20;;
12350;SDS011;6240;51.538;7.696;2023-02-10T14:15:22;22.43;;;15.40;;
12350;SDS011;6240;51.538;7.696;2023-02-10T14:17:58;23.83;;;15.37;;
12350;SDS011;6240;51.538;7.696;2023-02-10T14:20:27;25.03;;;15.37;;
12350;SDS011;6240;51.538;7.696;2023-02-10T14:22:58;23.43;;;15.10;;
12350;SDS011;6240;51.538;7.696;2023-02-10T14:25:34;25.27;;;15.47;;
12350;SDS011;6240;51.538;7.696;2023-02-10T14:28:04;23.10;;;14.13;;
12350;SDS011;6240;51.538;7.696;2023-02-10T14:30:38;26.93;;;14.53;;
12350;SDS011;6240;51.538;7.696;2023-02-10T14:33:06;23.00;;;13.53;;
12350;SDS011;6240;51.538;7.696;2023-02-10T14:35:47;21.33;;;14.00;;
12350;SDS011;6240;51.538;7.696;2023-02-10T14:38:18;22.03;;;14.40;;
12350;SDS011;6240;51.538;7.696;2023-02-10T14:40:46;21.67;;;14.13;;
12350;SDS011;6240;51.538;7.696;2023-02-10T14:43:14;20.03;;;13.00;;
12350;SDS011;6240;51.538;7.696;2023-02-10T14:45:46;18.67;;;12.53;;
12350;SDS011;6240;51.538;7.696;2023-02-10T14:48:19;22.80;;;14.47;;
12350;SDS011;6240;51.538;7.696;2023-02-10T14:50:56;24.30;;;13.43;;
12350;SDS011;6240;51.538;7.696;2023-02-10T14:53:25;22.30;;;13.37;;
12350;SDS011;6240;51.538;7.696;2023-02-10T14:55:53;22.23;;;13.50;;
12350;SDS011;6240;51.538;7.696;2023-02-10T14:58:20;24.13;;;13.43;;
12350;SDS011;6240;51.538;7.696;2023-02-10T15:00:54;19.97;;;12.97;;
12350;SDS011;6240;51.538;7.696;2023-02-10T15:03:21;21.30;;;13.33;;
12350;SDS011;6240;51.538;7.696;2023-02-10T15:05:50;22.23;;;13.03;;
12350;SDS011;6240;51.538;7.696;2023-02-10T15:08:21;23.30;;;14.10;;
12350;SDS011;6240;51.538;7.696;2023-02-10T15:10:51;26.73;;;15.13;;